createdAt,value
2018-07-12T00:01:19.889Z,101199.92
2018-07-12T00:06:21.378Z,101209.71
2018-07-12T00:11:22.874Z,101204.80
2018-07-12T00:16:24.438Z,101212.47
2018-07-12T00:21:25.941Z,101205.03
2018-07-12T00:26:27.555Z,101206.86
2018-07-12T00:31:29.037Z,101201.34
2018-07-12T00:36:30.521Z,101202.91
2018-07-12T00:41:32.032Z,101204.97
2018-07-12T00:46:33.527Z,101205.43
2018-07-12T00:51:35.029Z,101200.62
2018-07-12T00:56:36.528Z,101192.76
2018-07-12T01:01:38.054Z,101196.23
2018-07-12T01:06:39.571Z,101197.00
2018-07-12T01:11:41.070Z,101199.45
2018-07-12T01:16:42.565Z,101195.11
2018-07-12T01:21:44.098Z,101185.52
2018-07-12T01:26:45.612Z,101190.77
2018-07-12T01:31:47.105Z,101184.79
2018-07-12T01:36:48.634Z,101180.97
2018-07-12T01:41:50.150Z,101189.11
2018-07-12T01:46:51.666Z,101192.25
2018-07-12T01:51:53.162Z,101192.05
2018-07-12T01:57:04.222Z,101198.88
2018-07-12T02:02:05.713Z,101195.09
2018-07-12T02:07:07.254Z,101199.42
2018-07-12T02:12:08.870Z,101200.56
2018-07-12T02:17:10.361Z,101205.38
2018-07-12T02:22:11.894Z,101194.01
2018-07-12T02:27:13.462Z,101192.86
2018-07-12T02:32:14.966Z,101200.66
2018-07-12T02:37:16.468Z,101197.33
2018-07-12T02:42:17.973Z,101196.48
2018-07-12T02:47:19.759Z,101190.52
2018-07-12T02:52:21.275Z,101183.02
2018-07-12T02:57:25.116Z,101188.81
2018-07-12T03:02:26.653Z,101181.95
2018-07-12T03:07:28.364Z,101183.08
2018-07-12T03:12:30.060Z,101182.32
2018-07-12T03:17:31.574Z,101178.27
2018-07-12T03:22:33.085Z,101183.91
2018-07-12T03:27:34.639Z,101183.20
2018-07-12T03:32:36.178Z,101174.84
2018-07-12T03:37:37.682Z,101180.57
2018-07-12T03:42:39.210Z,101176.88
2018-07-12T03:47:40.721Z,101187.16
2018-07-12T03:52:42.206Z,101182.54
2018-07-12T03:57:43.718Z,101190.66
2018-07-12T04:02:45.309Z,101188.93
2018-07-12T04:07:46.872Z,101187.50
2018-07-12T04:12:48.418Z,101193.84
2018-07-12T04:17:49.978Z,101196.16
2018-07-12T04:22:51.501Z,101196.64
2018-07-12T04:27:53.047Z,101213.02
2018-07-12T04:32:54.553Z,101214.44
2018-07-12T04:37:56.034Z,101204.71
2018-07-12T04:42:57.545Z,101197.94
2018-07-12T04:47:59.052Z,101203.22
2018-07-12T04:53:00.547Z,101206.75
2018-07-12T04:58:02.110Z,101210.88
2018-07-12T05:03:03.634Z,101209.70
2018-07-12T05:08:05.191Z,101213.95
2018-07-12T05:13:06.706Z,101217.78
2018-07-12T05:18:08.285Z,101222.78
2018-07-12T05:23:09.773Z,101215.56
2018-07-12T05:28:11.288Z,101225.31
2018-07-12T05:33:12.838Z,101236.67
2018-07-12T05:38:15.850Z,101230.84
2018-07-12T05:43:18.974Z,101239.28
2018-07-12T05:48:22.054Z,101236.94
2018-07-12T05:53:25.104Z,101233.02
2018-07-12T05:58:28.143Z,101240.03
2018-07-12T06:03:31.288Z,101239.53
2018-07-12T06:08:34.454Z,101240.59
2018-07-12T06:13:37.482Z,101252.59
2018-07-12T06:18:40.482Z,101253.63
2018-07-12T06:23:43.562Z,101253.69
2018-07-12T06:28:46.638Z,101261.13
2018-07-12T06:33:49.730Z,101267.69
2018-07-12T06:38:52.806Z,101270.86
2018-07-12T06:43:55.926Z,101272.70
2018-07-12T06:48:58.970Z,101266.05
2018-07-12T06:54:02.078Z,101266.61
2018-07-12T06:59:05.327Z,101275.55
2018-07-12T07:04:09.169Z,101262.58
2018-07-12T07:09:13.365Z,101259.44
2018-07-12T07:14:16.563Z,101259.09
2018-07-12T07:19:19.700Z,101260.14
2018-07-12T07:24:22.905Z,101257.70
2018-07-12T07:29:25.934Z,101260.52
2018-07-12T07:34:28.991Z,101256.48
2018-07-12T07:39:32.033Z,101260.61
2018-07-12T07:44:35.072Z,101256.93
2018-07-12T07:49:38.168Z,101253.98
2018-07-12T07:54:41.166Z,101263.16
2018-07-12T07:59:44.348Z,101260.37
2018-07-12T08:04:47.482Z,101255.73
2018-07-12T08:09:50.854Z,101254.46
2018-07-12T08:14:53.968Z,101254.00
2018-07-12T08:19:57.058Z,101244.74
2018-07-12T08:25:00.154Z,101246.95
2018-07-12T08:30:03.369Z,101252.17
2018-07-12T08:35:06.534Z,101253.42
2018-07-12T08:40:09.687Z,101248.66
2018-07-12T08:45:12.814Z,101256.11
2018-07-12T08:50:15.987Z,101259.84
2018-07-12T08:55:19.147Z,101253.68
2018-07-12T09:00:22.246Z,101254.16
2018-07-12T09:05:25.362Z,101254.58
2018-07-12T09:10:28.513Z,101227.22
2018-07-12T09:15:31.631Z,101252.52
2018-07-12T09:20:34.850Z,101250.34
2018-07-12T09:25:37.915Z,101258.66
2018-07-12T09:30:40.962Z,101255.98
2018-07-12T09:35:44.053Z,101255.02
2018-07-12T09:40:47.083Z,101256.64
2018-07-12T09:45:50.151Z,101254.27
2018-07-12T09:50:53.181Z,101262.48
2018-07-12T09:55:56.201Z,101260.16
2018-07-12T10:01:04.862Z,101256.87
2018-07-12T10:06:13.619Z,101252.33
2018-07-12T10:11:22.516Z,101250.34
2018-07-12T10:16:31.228Z,101256.61
2018-07-12T10:21:34.229Z,101258.80
2018-07-12T10:26:38.449Z,101256.70
2018-07-12T10:31:41.470Z,101253.42
2018-07-12T10:36:44.549Z,101253.45
2018-07-12T10:41:47.584Z,101260.61
2018-07-12T10:46:50.632Z,101251.53
2018-07-12T10:51:53.720Z,101253.73
2018-07-12T10:56:56.804Z,101257.70
2018-07-12T11:01:59.881Z,101259.52
2018-07-12T11:07:02.958Z,101259.05
2018-07-12T11:12:06.054Z,101238.19
2018-07-12T11:17:09.130Z,101246.12
2018-07-12T11:22:12.883Z,101244.13
2018-07-12T11:27:15.911Z,101244.92
2018-07-12T11:32:19.348Z,101240.01
2018-07-12T11:37:24.528Z,101236.67
2018-07-12T11:42:27.541Z,101233.00
2018-07-12T11:47:30.567Z,101241.39
2018-07-12T11:52:33.733Z,101244.45
2018-07-12T11:57:36.906Z,101239.11
2018-07-12T12:02:39.986Z,101235.29
2018-07-12T12:07:43.310Z,101230.37
2018-07-12T12:12:46.410Z,101221.75
2018-07-12T12:17:49.551Z,101223.05
2018-07-12T12:22:52.641Z,101219.72
2018-07-12T12:27:56.260Z,101219.50
2018-07-12T12:32:59.497Z,101211.09
2018-07-12T12:38:02.657Z,101217.78
2018-07-12T12:43:05.865Z,101213.47
2018-07-12T12:48:08.957Z,101211.25
2018-07-12T12:53:11.959Z,101220.90
2018-07-12T12:58:15.475Z,101219.50
2018-07-12T13:03:19.125Z,101212.84
2018-07-12T13:08:22.218Z,101209.50
2018-07-12T13:13:25.247Z,101213.09
2018-07-12T13:18:28.306Z,101215.19
2018-07-12T13:23:31.342Z,101215.67
2018-07-12T13:28:34.369Z,101221.41
2018-07-12T13:33:37.343Z,101218.38
2018-07-12T13:38:40.374Z,101226.80
2018-07-12T13:43:43.373Z,101218.91
2018-07-12T13:48:46.439Z,101217.59
2018-07-12T13:53:49.462Z,101221.64
2018-07-12T13:58:52.503Z,101231.52
2018-07-12T14:03:55.550Z,101220.53
2018-07-12T14:08:58.622Z,101224.20
2018-07-12T14:14:01.952Z,101217.13
2018-07-12T14:19:05.222Z,101225.19
2018-07-12T14:24:08.335Z,101222.05
2018-07-12T14:29:11.357Z,101223.27
2018-07-12T14:34:14.429Z,101230.89
2018-07-12T14:39:17.545Z,101216.69
2018-07-12T14:44:20.718Z,101227.11
2018-07-12T14:49:23.786Z,101222.84
2018-07-12T14:54:26.915Z,101229.66
2018-07-12T14:59:29.894Z,101224.05
2018-07-12T15:04:32.916Z,101223.88
2018-07-12T15:09:36.050Z,101226.30
2018-07-12T15:14:39.202Z,101228.99
2018-07-12T15:19:42.278Z,101225.13
2018-07-12T15:24:45.374Z,101209.48
2018-07-12T15:29:48.396Z,101223.87
2018-07-12T15:34:51.390Z,101224.89
2018-07-12T15:39:54.409Z,101221.48
2018-07-12T15:44:57.405Z,101238.94
2018-07-12T15:50:00.525Z,101241.21
2018-07-12T15:55:03.786Z,101247.17
2018-07-12T16:00:06.853Z,101246.67
2018-07-12T16:05:09.936Z,101251.59
2018-07-12T16:10:12.952Z,101239.74
2018-07-12T16:15:16.020Z,101236.52
2018-07-12T16:20:19.065Z,101234.55
2018-07-12T16:25:22.106Z,101235.91
2018-07-12T16:30:25.118Z,101231.24
2018-07-12T16:35:28.175Z,101231.06
2018-07-12T16:40:31.237Z,101236.17
2018-07-12T16:45:34.363Z,101229.45
2018-07-12T16:50:37.412Z,101233.48
2018-07-12T16:55:40.511Z,101236.89
2018-07-12T17:00:43.545Z,101237.45
2018-07-12T17:05:46.660Z,101244.39
2018-07-12T17:10:50.237Z,101244.03
2018-07-12T17:15:53.422Z,101245.69
2018-07-12T17:20:56.471Z,101243.86
2018-07-12T17:25:59.654Z,101252.89
2018-07-12T17:31:02.807Z,101226.91
2018-07-12T17:36:05.917Z,101246.92
2018-07-12T17:41:09.023Z,101250.06
2018-07-12T17:46:12.197Z,101256.54
2018-07-12T17:51:15.244Z,101253.92
2018-07-12T17:56:18.422Z,101258.82
2018-07-12T18:01:21.372Z,101257.17
2018-07-12T18:06:24.409Z,101259.12
2018-07-12T18:11:27.441Z,101255.16
2018-07-12T18:16:30.442Z,101254.53
2018-07-12T18:21:33.474Z,101260.15
2018-07-12T18:26:36.862Z,101255.81
2018-07-12T18:31:40.147Z,101262.34
2018-07-12T18:36:43.272Z,101263.83
2018-07-12T18:41:46.407Z,101264.61
2018-07-12T18:46:49.616Z,101270.19
2018-07-12T18:51:54.121Z,101274.80
2018-07-12T18:56:57.387Z,101269.78
2018-07-12T19:02:00.484Z,101281.23
2018-07-12T19:07:03.562Z,101282.23
2018-07-12T19:12:06.805Z,101289.70
2018-07-12T19:17:09.822Z,101297.98
2018-07-12T19:22:12.938Z,101302.74
2018-07-12T19:27:16.034Z,101308.55
2018-07-12T19:32:19.090Z,101318.09
2018-07-12T19:37:22.156Z,101322.95
2018-07-12T19:42:25.330Z,101327.56
2018-07-12T19:47:28.471Z,101327.59
2018-07-12T19:52:31.635Z,101329.59
2018-07-12T19:57:34.751Z,101325.48
2018-07-12T20:02:37.792Z,101331.81
2018-07-12T20:07:43.574Z,101343.48
2018-07-12T20:12:48.516Z,101341.48
2018-07-12T20:17:52.717Z,101348.62
2018-07-12T20:22:55.824Z,101352.13
2018-07-12T20:27:58.837Z,101354.19
2018-07-12T20:33:01.893Z,101348.58
2018-07-12T20:38:04.953Z,101353.56
2018-07-12T20:43:08.307Z,101365.81
2018-07-12T20:48:11.664Z,101375.67
2018-07-12T20:53:14.905Z,101377.02
2018-07-12T20:58:17.902Z,101390.88
2018-07-12T21:03:21.146Z,101395.71
2018-07-12T21:08:24.254Z,101401.44
2018-07-12T21:13:27.327Z,101402.25
2018-07-12T21:18:30.345Z,101414.27
2018-07-12T21:23:33.519Z,101420.48
2018-07-12T21:28:36.646Z,101418.40
2018-07-12T21:33:39.806Z,101424.19
2018-07-12T21:38:42.830Z,101433.31
2018-07-12T21:43:45.878Z,101433.59
2018-07-12T21:48:48.912Z,101436.44
2018-07-12T21:53:51.913Z,101442.78
2018-07-12T21:58:55.241Z,101440.72
2018-07-12T22:03:58.250Z,101453.27
2018-07-12T22:09:01.282Z,101455.39
2018-07-12T22:14:04.393Z,101459.89
2018-07-12T22:19:07.439Z,101457.20
2018-07-12T22:24:10.462Z,101455.23
2018-07-12T22:29:13.519Z,101460.08
2018-07-12T22:34:16.546Z,101468.91
2018-07-12T22:39:19.589Z,101474.14
2018-07-12T22:44:22.637Z,101458.79
2018-07-12T22:49:25.696Z,101456.34
2018-07-12T22:54:28.710Z,101460.44
2018-07-12T22:59:31.721Z,101465.95
2018-07-12T23:04:34.761Z,101468.86
2018-07-12T23:09:37.797Z,101465.90
2018-07-12T23:14:40.920Z,101468.19
2018-07-12T23:19:43.961Z,101475.01
2018-07-12T23:24:47.064Z,101467.88
2018-07-12T23:29:50.137Z,101464.92
2018-07-12T23:34:53.193Z,101470.42
2018-07-12T23:39:56.221Z,101466.98
2018-07-12T23:44:59.314Z,101465.82
2018-07-12T23:50:02.346Z,101468.86
2018-07-12T23:55:05.470Z,101467.24
